sensor_id;sensor_type;location;lat;lon;timestamp;pressure;altitude;pressure_sealevel;temperature;humidity
55347;BME280;41218;55.700;38.270;2023-05-03T00:02:41;100129.13;;;5.45;54.60
55347;BME280;41218;55.700;38.270;2023-05-03T00:07:45;100165.34;;;5.68;54.89
55347;BME280;41218;55.700;38.270;2023-05-03T00:12:46;100138.47;;;5.52;54.92
55347;BME280;41218;55.700;38.270;2023-05-03T00:17:46;100096.13;;;5.15;54.74
55347;BME280;41218;55.700;38.270;2023-05-03T00:22:47;100123.03;;;5.30;55.29
55347;BME280;41218;55.700;38.270;2023-05-03T00:27:47;100118.34;;;5.31;55.08
55347;BME280;41218;55.700;38.270;2023-05-03T00:32:48;100103.69;;;5.18;54.99
55347;BME280;41218;55.700;38.270;2023-05-03T00:37:50;100084.06;;;5.07;55.39
55347;BME280;41218;55.700;38.270;2023-05-03T00:42:51;100086.13;;;5.10;55.10
55347;BME280;41218;55.700;38.270;2023-05-03T00:47:52;100074.69;;;5.08;55.38
55347;BME280;41218;55.700;38.270;2023-05-03T00:52:52;100067.47;;;5.04;55.56
55347;BME280;41218;55.700;38.270;2023-05-03T00:57:53;100074.53;;;5.13;55.75
55347;BME280;41218;55.700;38.270;2023-05-03T01:02:54;100049.75;;;5.01;55.62
55347;BME280;41218;55.700;38.270;2023-05-03T01:07:59;100113.81;;;5.44;55.75
55347;BME280;41218;55.700;38.270;2023-05-03T01:13:15;100119.31;;;5.44;55.90
55347;BME280;41218;55.700;38.270;2023-05-03T01:18:24;100079.00;;;5.27;56.08
55347;BME280;41218;55.700;38.270;2023-05-03T01:23:32;100036.84;;;5.01;55.74
55347;BME280;41218;55.700;38.270;2023-05-03T01:28:35;100042.00;;;5.03;55.51
55347;BME280;41218;55.700;38.270;2023-05-03T01:33:39;100111.03;;;5.52;55.93
55347;BME280;41218;55.700;38.270;2023-05-03T01:38:43;100062.09;;;5.25;55.64
55347;BME280;41218;55.700;38.270;2023-05-03T01:43:45;100009.97;;;4.95;56.13
55347;BME280;41218;55.700;38.270;2023-05-03T01:48:46;100039.53;;;5.19;55.88
55347;BME280;41218;55.700;38.270;2023-05-03T01:53:47;100024.22;;;5.18;55.97
55347;BME280;41218;55.700;38.270;2023-05-03T01:58:48;100028.72;;;5.22;55.92
55347;BME280;41218;55.700;38.270;2023-05-03T02:03:48;100020.22;;;5.15;56.27
55347;BME280;41218;55.700;38.270;2023-05-03T02:08:49;100038.06;;;5.30;56.57
55347;BME280;41218;55.700;38.270;2023-05-03T02:13:50;100035.75;;;5.41;56.50
55347;BME280;41218;55.700;38.270;2023-05-03T02:18:50;100024.03;;;5.32;56.27
55347;BME280;41218;55.700;38.270;2023-05-03T02:23:53;100040.75;;;5.48;56.58
55347;BME280;41218;55.700;38.270;2023-05-03T02:28:53;99979.72;;;5.21;56.67
55347;BME280;41218;55.700;38.270;2023-05-03T02:33:56;100023.78;;;5.54;56.62
55347;BME280;41218;55.700;38.270;2023-05-03T02:38:56;100000.59;;;5.43;57.01
55347;BME280;41218;55.700;38.270;2023-05-03T02:43:57;99979.38;;;5.31;56.78
55347;BME280;41218;55.700;38.270;2023-05-03T02:48:57;99982.25;;;5.35;56.77
55347;BME280;41218;55.700;38.270;2023-05-03T02:53:58;100003.31;;;5.52;57.10
55347;BME280;41218;55.700;38.270;2023-05-03T02:58:59;99956.31;;;5.32;56.81
55347;BME280;41218;55.700;38.270;2023-05-03T03:03:59;99980.75;;;5.46;57.32
55347;BME280;41218;55.700;38.270;2023-05-03T03:09:00;99997.41;;;5.71;57.09
55347;BME280;41218;55.700;38.270;2023-05-03T03:14:00;99955.31;;;5.67;57.14
55347;BME280;41218;55.700;38.270;2023-05-03T03:19:01;100006.53;;;6.13;56.92
55347;BME280;41218;55.700;38.270;2023-05-03T03:24:03;100026.50;;;6.44;57.06
55347;BME280;41218;55.700;38.270;2023-05-03T03:29:03;100027.31;;;6.65;57.29
55347;BME280;41218;55.700;38.270;2023-05-03T03:34:04;99953.09;;;6.32;56.76
55347;BME280;41218;55.700;38.270;2023-05-03T03:39:05;100008.31;;;6.72;56.70
55347;BME280;41218;55.700;38.270;2023-05-03T03:44:06;99974.50;;;6.59;56.74
55347;BME280;41218;55.700;38.270;2023-05-03T03:49:07;99972.94;;;6.71;56.33
55347;BME280;41218;55.700;38.270;2023-05-03T03:54:07;99967.47;;;6.83;56.01
55347;BME280;41218;55.700;38.270;2023-05-03T03:59:08;99984.16;;;7.11;56.27
55347;BME280;41218;55.700;38.270;2023-05-03T04:04:09;99960.91;;;7.09;55.91
55347;BME280;41218;55.700;38.270;2023-05-03T04:09:09;99986.94;;;7.36;55.74
55347;BME280;41218;55.700;38.270;2023-05-03T04:14:10;99975.25;;;7.39;55.69
55347;BME280;41218;55.700;38.270;2023-05-03T04:19:12;99967.13;;;7.42;55.79
55347;BME280;41218;55.700;38.270;2023-05-03T04:24:15;100037.38;;;8.01;55.75
55347;BME280;41218;55.700;38.270;2023-05-03T04:29:16;99959.47;;;7.60;55.25
55347;BME280;41218;55.700;38.270;2023-05-03T04:34:19;99994.38;;;7.85;55.13
55347;BME280;41218;55.700;38.270;2023-05-03T04:39:19;100027.75;;;8.08;55.23
55347;BME280;41218;55.700;38.270;2023-05-03T04:44:21;99982.25;;;7.86;55.25
55347;BME280;41218;55.700;38.270;2023-05-03T04:49:22;99963.66;;;7.95;55.03
55347;BME280;41218;55.700;38.270;2023-05-03T04:54:22;100000.06;;;8.16;54.97
55347;BME280;41218;55.700;38.270;2023-05-03T04:59:23;99997.09;;;8.21;54.75
55347;BME280;41218;55.700;38.270;2023-05-03T05:04:23;99970.03;;;8.11;54.85
55347;BME280;41218;55.700;38.270;2023-05-03T05:09:27;100003.03;;;8.36;55.32
55347;BME280;41218;55.700;38.270;2023-05-03T05:14:29;100019.66;;;8.52;55.38
55347;BME280;41218;55.700;38.270;2023-05-03T05:19:30;100018.19;;;8.42;55.58
55347;BME280;41218;55.700;38.270;2023-05-03T05:24:31;100008.06;;;8.34;56.06
55347;BME280;41218;55.700;38.270;2023-05-03T05:29:31;100031.69;;;8.47;56.36
55347;BME280;41218;55.700;38.270;2023-05-03T05:34:33;100013.13;;;8.44;56.55
55347;BME280;41218;55.700;38.270;2023-05-03T05:39:33;100070.41;;;8.79;56.54
55347;BME280;41218;55.700;38.270;2023-05-03T05:44:34;100064.50;;;8.65;56.36
55347;BME280;41218;55.700;38.270;2023-05-03T05:49:37;100011.97;;;8.33;57.80
55347;BME280;41218;55.700;38.270;2023-05-03T05:54:37;100016.47;;;8.37;57.57
55347;BME280;41218;55.700;38.270;2023-05-03T05:59:41;100036.19;;;8.52;58.18
55347;BME280;41218;55.700;38.270;2023-05-03T06:05:02;100049.88;;;8.76;58.00
55347;BME280;41218;55.700;38.270;2023-05-03T06:10:06;100043.81;;;8.71;58.04
55347;BME280;41218;55.700;38.270;2023-05-03T06:15:07;100050.28;;;8.91;57.63
55347;BME280;41218;55.700;38.270;2023-05-03T06:20:09;100037.28;;;8.91;57.64
55347;BME280;41218;55.700;38.270;2023-05-03T06:25:14;100060.06;;;9.04;57.12
55347;BME280;41218;55.700;38.270;2023-05-03T06:30:18;100048.41;;;8.95;57.06
55347;BME280;41218;55.700;38.270;2023-05-03T06:35:19;100073.31;;;9.27;56.93
55347;BME280;41218;55.700;38.270;2023-05-03T06:40:21;100037.91;;;9.29;56.68
55347;BME280;41218;55.700;38.270;2023-05-03T06:45:24;100049.56;;;9.54;56.60
55347;BME280;41218;55.700;38.270;2023-05-03T06:50:25;100056.44;;;9.76;56.31
55347;BME280;41218;55.700;38.270;2023-05-03T06:55:26;100030.25;;;9.70;56.12
55347;BME280;41218;55.700;38.270;2023-05-03T07:00:29;100075.28;;;10.06;55.72
55347;BME280;41218;55.700;38.270;2023-05-03T07:05:48;100059.44;;;10.02;55.61
55347;BME280;41218;55.700;38.270;2023-05-03T07:10:59;100041.44;;;10.09;55.08
55347;BME280;41218;55.700;38.270;2023-05-03T07:15:59;100031.22;;;10.29;55.12
55347;BME280;41218;55.700;38.270;2023-05-03T07:21:00;100027.13;;;10.38;54.53
55347;BME280;41218;55.700;38.270;2023-05-03T07:26:05;100028.66;;;10.55;54.27
55347;BME280;41218;55.700;38.270;2023-05-03T07:31:06;100051.88;;;10.70;54.11
55347;BME280;41218;55.700;38.270;2023-05-03T07:36:06;100084.91;;;11.02;53.61
55347;BME280;41218;55.700;38.270;2023-05-03T07:41:07;100087.53;;;11.14;53.50
55347;BME280;41218;55.700;38.270;2023-05-03T07:46:08;100086.81;;;11.17;53.15
55347;BME280;41218;55.700;38.270;2023-05-03T07:51:09;100056.22;;;11.10;52.95
55347;BME280;41218;55.700;38.270;2023-05-03T07:56:09;100068.00;;;11.27;52.94
55347;BME280;41218;55.700;38.270;2023-05-03T08:01:10;100115.81;;;11.70;52.89
55347;BME280;41218;55.700;38.270;2023-05-03T08:06:11;100070.38;;;11.48;52.58
55347;BME280;41218;55.700;38.270;2023-05-03T08:11:12;100069.69;;;11.54;52.50
55347;BME280;41218;55.700;38.270;2023-05-03T08:16:13;100082.50;;;11.62;52.23
55347;BME280;41218;55.700;38.270;2023-05-03T08:21:16;100109.06;;;11.67;51.87
55347;BME280;41218;55.700;38.270;2023-05-03T08:26:19;100121.59;;;11.61;52.30
55347;BME280;41218;55.700;38.270;2023-05-03T08:31:23;100132.94;;;11.75;52.33
55347;BME280;41218;55.700;38.270;2023-05-03T08:36:24;100149.38;;;11.88;52.22
55347;BME280;41218;55.700;38.270;2023-05-03T08:41:29;100139.94;;;11.89;52.33
55347;BME280;41218;55.700;38.270;2023-05-03T08:46:30;100161.56;;;12.02;52.07
55347;BME280;41218;55.700;38.270;2023-05-03T08:51:30;100170.28;;;12.05;52.07
55347;BME280;41218;55.700;38.270;2023-05-03T08:56:39;100133.72;;;11.76;52.31
55347;BME280;41218;55.700;38.270;2023-05-03T09:01:40;100157.22;;;11.82;52.53
55347;BME280;41218;55.700;38.270;2023-05-03T09:06:41;100152.31;;;11.75;52.59
55347;BME280;41218;55.700;38.270;2023-05-03T09:11:42;100178.88;;;11.76;53.05
55347;BME280;41218;55.700;38.270;2023-05-03T09:16:44;100157.97;;;11.59;53.54
55347;BME280;41218;55.700;38.270;2023-05-03T09:21:46;100147.00;;;11.43;54.27
55347;BME280;41218;55.700;38.270;2023-05-03T09:26:53;100175.28;;;11.76;54.71
55347;BME280;41218;55.700;38.270;2023-05-03T09:31:59;100142.81;;;11.53;55.65
55347;BME280;41218;55.700;38.270;2023-05-03T09:37:00;100156.50;;;11.66;55.79
55347;BME280;41218;55.700;38.270;2023-05-03T09:42:17;100161.41;;;11.53;56.88
55347;BME280;41218;55.700;38.270;2023-05-03T09:47:19;100203.28;;;11.71;56.40
55347;BME280;41218;55.700;38.270;2023-05-03T09:52:20;100184.94;;;11.62;56.41
55347;BME280;41218;55.700;38.270;2023-05-03T09:57:22;100163.66;;;11.47;56.78
55347;BME280;41218;55.700;38.270;2023-05-03T10:02:23;100198.41;;;11.64;57.36
55347;BME280;41218;55.700;38.270;2023-05-03T10:07:27;100166.81;;;11.46;57.75
55347;BME280;41218;55.700;38.270;2023-05-03T10:12:28;100167.97;;;11.45;57.64
55347;BME280;41218;55.700;38.270;2023-05-03T10:17:31;100163.22;;;11.45;58.07
55347;BME280;41218;55.700;38.270;2023-05-03T10:23:06;100173.06;;;11.62;58.90
55347;BME280;41218;55.700;38.270;2023-05-03T10:28:12;100162.41;;;11.64;58.88
55347;BME280;41218;55.700;38.270;2023-05-03T10:38:22;100143.50;;;11.89;59.43
55347;BME280;41218;55.700;38.270;2023-05-03T10:48:31;100169.47;;;12.27;58.86
55347;BME280;41218;55.700;38.270;2023-05-03T10:53:39;100140.56;;;12.28;59.07
55347;BME280;41218;55.700;38.270;2023-05-03T10:58:45;100204.00;;;12.83;58.58
55347;BME280;41218;55.700;38.270;2023-05-03T11:09:38;100154.47;;;12.81;58.23
55347;BME280;41218;55.700;38.270;2023-05-03T11:14:49;100145.47;;;12.92;57.96
55347;BME280;41218;55.700;38.270;2023-05-03T11:25:35;100154.31;;;13.31;57.63
55347;BME280;41218;55.700;38.270;2023-05-03T11:30:53;100149.81;;;13.53;57.13
55347;BME280;41218;55.700;38.270;2023-05-03T11:35:54;100171.66;;;13.96;57.12
55347;BME280;41218;55.700;38.270;2023-05-03T11:41:23;100200.91;;;14.23;56.67
55347;BME280;41218;55.700;38.270;2023-05-03T11:46:25;100126.75;;;13.90;56.25
55347;BME280;41218;55.700;38.270;2023-05-03T11:51:54;100154.72;;;14.12;56.03
55347;BME280;41218;55.700;38.270;2023-05-03T11:56:58;100125.69;;;14.06;55.66
55347;BME280;41218;55.700;38.270;2023-05-03T12:02:01;100181.72;;;14.59;55.44
55347;BME280;41218;55.700;38.270;2023-05-03T12:07:09;100165.31;;;14.47;54.78
55347;BME280;41218;55.700;38.270;2023-05-03T12:12:20;100117.50;;;14.27;54.38
55347;BME280;41218;55.700;38.270;2023-05-03T12:18:21;100173.00;;;14.61;54.02
55347;BME280;41218;55.700;38.270;2023-05-03T12:23:25;100163.09;;;14.63;54.27
55347;BME280;41218;55.700;38.270;2023-05-03T12:28:28;100153.56;;;14.65;53.92
55347;BME280;41218;55.700;38.270;2023-05-03T12:33:29;100144.72;;;14.55;53.54
55347;BME280;41218;55.700;38.270;2023-05-03T12:38:30;100135.94;;;14.46;53.42
55347;BME280;41218;55.700;38.270;2023-05-03T12:43:30;100122.34;;;14.37;53.74
55347;BME280;41218;55.700;38.270;2023-05-03T12:48:31;100137.13;;;14.49;53.49
55347;BME280;41218;55.700;38.270;2023-05-03T12:53:34;100171.91;;;14.73;52.40
55347;BME280;41218;55.700;38.270;2023-05-03T12:58:35;100147.94;;;14.57;52.63
55347;BME280;41218;55.700;38.270;2023-05-03T13:03:36;100155.13;;;14.58;52.56
55347;BME280;41218;55.700;38.270;2023-05-03T13:08:36;100130.75;;;14.45;52.56
55347;BME280;41218;55.700;38.270;2023-05-03T13:13:37;100133.16;;;14.46;52.90
55347;BME280;41218;55.700;38.270;2023-05-03T13:18:38;100173.09;;;14.75;52.74
55347;BME280;41218;55.700;38.270;2023-05-03T13:23:38;100148.91;;;14.83;52.32
55347;BME280;41218;55.700;38.270;2023-05-03T13:28:39;100168.53;;;15.12;52.33
55347;BME280;41218;55.700;38.270;2023-05-03T13:33:40;100127.91;;;15.00;52.48
55347;BME280;41218;55.700;38.270;2023-05-03T13:38:41;100132.28;;;15.01;52.40
55347;BME280;41218;55.700;38.270;2023-05-03T13:43:41;100150.25;;;15.11;52.75
55347;BME280;41218;55.700;38.270;2023-05-03T13:48:42;100174.13;;;15.22;52.78
55347;BME280;41218;55.700;38.270;2023-05-03T13:53:42;100135.13;;;15.12;52.52
55347;BME280;41218;55.700;38.270;2023-05-03T13:58:43;100144.69;;;15.18;52.51
55347;BME280;41218;55.700;38.270;2023-05-03T14:03:44;100165.78;;;15.19;52.51
55347;BME280;41218;55.700;38.270;2023-05-03T14:08:45;100158.16;;;15.05;52.21
55347;BME280;41218;55.700;38.270;2023-05-03T14:13:46;100151.38;;;14.99;52.29
55347;BME280;41218;55.700;38.270;2023-05-03T14:18:47;100145.75;;;14.88;52.50
55347;BME280;41218;55.700;38.270;2023-05-03T14:23:49;100152.44;;;14.76;52.69
55347;BME280;41218;55.700;38.270;2023-05-03T14:28:50;100192.81;;;15.18;52.87
55347;BME280;41218;55.700;38.270;2023-05-03T14:33:53;100160.09;;;14.94;52.51
55347;BME280;41218;55.700;38.270;2023-05-03T14:38:54;100192.00;;;15.14;51.86
55347;BME280;41218;55.700;38.270;2023-05-03T14:43:55;100142.53;;;14.82;51.84
55347;BME280;41218;55.700;38.270;2023-05-03T14:48:55;100165.25;;;14.92;51.88
55347;BME280;41218;55.700;38.270;2023-05-03T14:53:56;100160.41;;;14.81;51.81
55347;BME280;41218;55.700;38.270;2023-05-03T14:59:00;100140.44;;;14.65;51.50
55347;BME280;41218;55.700;38.270;2023-05-03T15:04:01;100130.78;;;14.48;51.80
55347;BME280;41218;55.700;38.270;2023-05-03T15:09:06;100155.97;;;14.66;51.75
55347;BME280;41218;55.700;38.270;2023-05-03T15:14:08;100143.91;;;14.51;51.84
55347;BME280;41218;55.700;38.270;2023-05-03T15:19:09;100144.69;;;14.48;51.84
55347;BME280;41218;55.700;38.270;2023-05-03T15:24:10;100148.25;;;14.49;51.81
55347;BME280;41218;55.700;38.270;2023-05-03T15:29:10;100185.75;;;14.66;51.94
55347;BME280;41218;55.700;38.270;2023-05-03T15:34:11;100141.41;;;14.35;51.90
55347;BME280;41218;55.700;38.270;2023-05-03T15:39:12;100152.09;;;14.30;51.87
55347;BME280;41218;55.700;38.270;2023-05-03T15:44:12;100144.78;;;14.11;52.00
55347;BME280;41218;55.700;38.270;2023-05-03T15:49:14;100166.72;;;14.19;52.30
55347;BME280;41218;55.700;38.270;2023-05-03T15:54:15;100165.84;;;14.12;52.30
55347;BME280;41218;55.700;38.270;2023-05-03T15:59:15;100161.41;;;14.03;52.39
55347;BME280;41218;55.700;38.270;2023-05-03T16:04:18;100185.28;;;14.08;52.53
55347;BME280;41218;55.700;38.270;2023-05-03T16:09:18;100180.91;;;14.07;52.81
55347;BME280;41218;55.700;38.270;2023-05-03T16:14:20;100160.53;;;13.96;52.85
55347;BME280;41218;55.700;38.270;2023-05-03T16:19:21;100178.44;;;13.98;52.90
55347;BME280;41218;55.700;38.270;2023-05-03T16:24:22;100156.47;;;13.86;53.05
55347;BME280;41218;55.700;38.270;2023-05-03T16:29:22;100193.16;;;14.02;53.08
55347;BME280;41218;55.700;38.270;2023-05-03T16:34:23;100190.25;;;13.88;53.20
55347;BME280;41218;55.700;38.270;2023-05-03T16:39:23;100200.53;;;13.84;53.49
55347;BME280;41218;55.700;38.270;2023-05-03T16:44:24;100203.66;;;13.79;53.39
55347;BME280;41218;55.700;38.270;2023-05-03T16:49:25;100184.06;;;13.65;53.51
55347;BME280;41218;55.700;38.270;2023-05-03T16:54:26;100195.91;;;13.61;53.56
55347;BME280;41218;55.700;38.270;2023-05-03T16:59:27;100186.28;;;13.52;54.04
55347;BME280;41218;55.700;38.270;2023-05-03T17:04:28;100192.59;;;13.49;54.08
55347;BME280;41218;55.700;38.270;2023-05-03T17:09:30;100194.13;;;13.42;54.23
55347;BME280;41218;55.700;38.270;2023-05-03T17:14:35;100239.56;;;13.61;54.72
55347;BME280;41218;55.700;38.270;2023-05-03T17:19:45;100236.31;;;13.55;54.91
55347;BME280;41218;55.700;38.270;2023-05-03T17:24:46;100266.97;;;13.62;55.24
55347;BME280;41218;55.700;38.270;2023-05-03T17:29:50;100237.19;;;13.29;55.61
55347;BME280;41218;55.700;38.270;2023-05-03T17:34:51;100236.72;;;13.27;55.68
55347;BME280;41218;55.700;38.270;2023-05-03T17:39:54;100244.56;;;13.21;55.77
55347;BME280;41218;55.700;38.270;2023-05-03T17:44:55;100258.00;;;13.16;56.02
55347;BME280;41218;55.700;38.270;2023-05-03T17:49:55;100300.72;;;13.34;56.27
55347;BME280;41218;55.700;38.270;2023-05-03T17:54:56;100270.47;;;13.02;56.35
55347;BME280;41218;55.700;38.270;2023-05-03T18:00:18;100261.50;;;12.86;56.99
55347;BME280;41218;55.700;38.270;2023-05-03T18:05:34;100314.53;;;13.08;57.35
55347;BME280;41218;55.700;38.270;2023-05-03T18:10:37;100291.28;;;12.89;57.36
55347;BME280;41218;55.700;38.270;2023-05-03T18:15:54;100280.38;;;12.77;58.80
55347;BME280;41218;55.700;38.270;2023-05-03T18:21:04;100253.03;;;12.52;58.70
55347;BME280;41218;55.700;38.270;2023-05-03T18:26:05;100280.47;;;12.57;58.32
55347;BME280;41218;55.700;38.270;2023-05-03T18:31:10;100321.25;;;12.80;59.40
55347;BME280;41218;55.700;38.270;2023-05-03T18:36:27;100283.13;;;12.50;59.65
55347;BME280;41218;55.700;38.270;2023-05-03T18:41:36;100265.31;;;12.28;59.43
55347;BME280;41218;55.700;38.270;2023-05-03T18:52:05;100264.50;;;12.28;59.79
55347;BME280;41218;55.700;38.270;2023-05-03T18:57:24;100274.00;;;12.27;59.33
55347;BME280;41218;55.700;38.270;2023-05-03T19:02:41;100279.22;;;12.32;60.22
55347;BME280;41218;55.700;38.270;2023-05-03T19:08:23;100292.16;;;12.24;60.46
55347;BME280;41218;55.700;38.270;2023-05-03T19:13:48;100295.25;;;12.19;60.46
55347;BME280;41218;55.700;38.270;2023-05-03T19:25:10;100318.13;;;12.16;60.98
55347;BME280;41218;55.700;38.270;2023-05-03T19:30:43;100318.59;;;11.98;60.74
55347;BME280;41218;55.700;38.270;2023-05-03T19:35:53;100345.56;;;12.01;60.86
55347;BME280;41218;55.700;38.270;2023-05-03T19:40:59;100325.22;;;11.74;61.29
55347;BME280;41218;55.700;38.270;2023-05-03T19:52:23;100323.63;;;11.38;60.54
55347;BME280;41218;55.700;38.270;2023-05-03T20:04:00;100400.66;;;11.52;60.96
55347;BME280;41218;55.700;38.270;2023-05-03T20:10:01;100330.00;;;11.07;60.72
55347;BME280;41218;55.700;38.270;2023-05-03T20:15:34;100374.28;;;11.22;61.00
55347;BME280;41218;55.700;38.270;2023-05-03T21:00:19;100431.25;;;10.63;60.46
55347;BME280;41218;55.700;38.270;2023-05-03T21:05:39;100406.75;;;10.34;60.35
55347;BME280;41218;55.700;38.270;2023-05-03T21:10:52;100378.91;;;9.98;60.45
55347;BME280;41218;55.700;38.270;2023-05-03T21:16:37;100401.44;;;10.00;60.25
55347;BME280;41218;55.700;38.270;2023-05-03T21:22:15;100388.38;;;9.73;60.19
55347;BME280;41218;55.700;38.270;2023-05-03T21:33:57;100399.47;;;9.48;60.28
55347;BME280;41218;55.700;38.270;2023-05-03T21:39:50;100446.84;;;9.62;60.11
55347;BME280;41218;55.700;38.270;2023-05-03T21:45:13;100397.53;;;9.12;60.27
55347;BME280;41218;55.700;38.270;2023-05-03T21:50:43;100462.03;;;9.32;60.17
55347;BME280;41218;55.700;38.270;2023-05-03T21:55:45;100438.88;;;8.99;60.06
55347;BME280;41218;55.700;38.270;2023-05-03T22:00:46;100466.59;;;9.15;60.29
55347;BME280;41218;55.700;38.270;2023-05-03T22:05:47;100433.66;;;8.73;59.84
55347;BME280;41218;55.700;38.270;2023-05-03T22:10:53;100403.34;;;8.40;60.14
55347;BME280;41218;55.700;38.270;2023-05-03T22:15:55;100407.31;;;8.30;60.01
55347;BME280;41218;55.700;38.270;2023-05-03T22:21:02;100420.50;;;8.25;60.04
55347;BME280;41218;55.700;38.270;2023-05-03T22:26:03;100405.00;;;7.99;60.20
55347;BME280;41218;55.700;38.270;2023-05-03T22:31:07;100406.88;;;7.86;60.20
55347;BME280;41218;55.700;38.270;2023-05-03T22:36:10;100437.16;;;7.86;60.18
55347;BME280;41218;55.700;38.270;2023-05-03T22:41:14;100473.44;;;8.09;59.80
55347;BME280;41218;55.700;38.270;2023-05-03T22:46:17;100413.09;;;7.53;60.06
55347;BME280;41218;55.700;38.270;2023-05-03T22:51:22;100414.00;;;7.36;60.44
55347;BME280;41218;55.700;38.270;2023-05-03T22:56:28;100416.31;;;7.26;59.86
55347;BME280;41218;55.700;38.270;2023-05-03T23:01:31;100400.56;;;7.05;59.67
55347;BME280;41218;55.700;38.270;2023-05-03T23:06:35;100420.94;;;7.04;59.79
55347;BME280;41218;55.700;38.270;2023-05-03T23:11:36;100411.63;;;6.88;60.04
55347;BME280;41218;55.700;38.270;2023-05-03T23:16:36;100414.91;;;6.72;59.79
55347;BME280;41218;55.700;38.270;2023-05-03T23:21:37;100422.19;;;6.68;59.61
55347;BME280;41218;55.700;38.270;2023-05-03T23:26:41;100465.16;;;6.81;59.95
55347;BME280;41218;55.700;38.270;2023-05-03T23:31:48;100402.25;;;6.33;59.65
55347;BME280;41218;55.700;38.270;2023-05-03T23:36:51;100412.41;;;6.24;59.76
55347;BME280;41218;55.700;38.270;2023-05-03T23:41:51;100423.88;;;6.17;59.65
55347;BME280;41218;55.700;38.270;2023-05-03T23:46:52;100444.69;;;6.18;59.84
55347;BME280;41218;55.700;38.270;2023-05-03T23:51:53;100444.84;;;6.04;59.60
55347;BME280;41218;55.700;38.270;2023-05-03T23:56:54;100484.94;;;6.22;59.91
